Time;durP1;ratioP1;P1;durP2;ratioP2;P2;SDS_P1;SDS_P2;PMS_P1;PMS_P2;Temp;Humidity;BMP_temperature;BMP_pressure;BME280_temperature;BME280_humidity;BME280_pressure;Samples;Min_cycle;Max_cycle;Signal;HPM_P1;HPM_P2
2023/02/15 00:01:29;;;;;;;12.43;10.00;;;;;;;17.11;50.54;102997.28;6227544;22;20011;-84
2023/02/15 00:03:54;;;;;;;10.82;9.32;;;;;;;17.11;50.61;102988.63;6252888;22;20012;-84
2023/02/15 00:06:20;;;;;;;11.15;9.63;;;;;;;17.11;50.64;102989.47;6227234;22;20027;-86
2023/02/15 00:08:46;;;;;;;11.60;9.90;;;;;;;17.12;50.65;102980.00;6226879;22;20039;-84
2023/02/15 00:11:39;;;;;;;10.88;9.77;;;;;;;17.10;50.82;102971.25;6252203;22;20003;-85
2023/02/15 00:14:04;;;;;;;10.80;9.55;;;;;;;17.10;50.67;102966.06;6278106;22;20354;-84
2023/02/15 00:16:30;;;;;;;11.32;9.20;;;;;;;17.11;50.51;102965.19;6252211;22;20011;-85
2023/02/15 00:18:55;;;;;;;11.10;9.50;;;;;;;17.09;50.40;102959.06;6227386;22;20014;-84
2023/02/15 00:21:22;;;;;;;10.88;9.60;;;;;;;17.10;50.44;102963.44;6202247;22;20419;-85
2023/02/15 00:23:47;;;;;;;10.98;9.05;;;;;;;17.08;50.58;102958.19;6252283;22;20030;-85
2023/02/15 00:26:13;;;;;;;11.10;9.70;;;;;;;17.09;50.37;102959.06;6201263;22;20010;-85
2023/02/15 00:28:38;;;;;;;10.40;9.30;;;;;;;17.09;50.28;102959.06;6202031;22;20007;-83
2023/02/15 00:31:10;;;;;;;10.32;9.15;;;;;;;17.08;50.61;102955.59;6251482;22;20034;-85
2023/02/15 00:33:36;;;;;;;10.73;9.20;;;;;;;17.09;50.58;102956.47;6251679;22;20003;-86
2023/02/15 00:36:06;;;;;;;10.60;8.38;;;;;;;17.08;50.66;102955.59;6226666;22;20034;-83
2023/02/15 00:38:31;;;;;;;9.73;8.70;;;;;;;17.09;50.44;102948.66;6252403;22;20015;-82
2023/02/15 00:40:58;;;;;;;11.05;9.13;;;;;;;17.08;50.44;102947.78;6254232;22;20075;-84
2023/02/15 00:43:25;;;;;;;10.27;8.95;;;;;;;17.07;50.12;102951.22;6290801;22;20012;-84
2023/02/15 00:45:51;;;;;;;10.52;8.55;;;;;;;17.06;50.47;102947.75;6263711;22;20012;-84
2023/02/15 00:48:16;;;;;;;9.95;8.95;;;;;;;17.06;50.56;102952.94;6291618;22;20026;-86
2023/02/15 00:50:52;;;;;;;9.60;8.60;;;;;;;17.06;50.37;102950.34;6264325;22;20011;-84
2023/02/15 00:53:17;;;;;;;10.40;9.02;;;;;;;17.05;50.19;102948.59;6289413;22;20011;-85
2023/02/15 00:55:43;;;;;;;9.65;8.57;;;;;;;17.04;50.33;102944.22;6229080;22;19995;-85
2023/02/15 00:58:10;;;;;;;10.32;9.00;;;;;;;17.06;50.32;102946.88;6228380;22;20087;-84
2023/02/15 01:00:36;;;;;;;9.68;8.57;;;;;;;17.04;50.31;102941.63;6227466;22;20332;-86
2023/02/15 01:03:01;;;;;;;9.40;8.50;;;;;;;17.04;50.27;102935.53;6227516;22;20008;-86
2023/02/15 01:05:27;;;;;;;10.45;9.18;;;;;;;17.04;50.27;102941.63;6252626;22;20018;-85
2023/02/15 01:07:52;;;;;;;9.70;8.70;;;;;;;17.05;50.15;102939.94;6251581;22;19999;-85
2023/02/15 01:10:18;;;;;;;9.77;8.77;;;;;;;17.03;50.09;102939.00;6225893;22;20027;-85
2023/02/15 01:12:43;;;;;;;9.85;8.55;;;;;;;17.02;50.11;102938.09;6226419;22;20425;-85
2023/02/15 01:15:09;;;;;;;9.18;8.05;;;;;;;17.03;50.14;102932.06;6251407;22;20012;-86
2023/02/15 01:17:35;;;;;;;10.30;9.07;;;;;;;17.02;50.18;102927.69;6251613;22;20008;-85
2023/02/15 01:20:00;;;;;;;10.25;8.95;;;;;;;17.03;50.07;102931.19;6225999;22;20109;-85
2023/02/15 01:22:26;;;;;;;10.00;9.00;;;;;;;17.02;50.13;102926.81;6226092;22;20004;-85
2023/02/15 01:24:52;;;;;;;9.73;8.73;;;;;;;17.03;49.92;102924.28;6250891;22;20010;-85
2023/02/15 01:27:17;;;;;;;10.30;8.43;;;;;;;17.01;49.82;102915.53;6278000;22;20032;-84
2023/02/15 01:29:43;;;;;;;10.38;8.70;;;;;;;17.02;50.21;102911.22;6200657;22;20470;-84
2023/02/15 01:32:08;;;;;;;9.60;8.60;;;;;;;17.00;50.01;102913.75;6251041;22;20094;-85
2023/02/15 01:34:34;;;;;;;9.82;8.82;;;;;;;16.99;50.07;102911.16;6250661;22;20038;-84
2023/02/15 01:36:59;;;;;;;9.63;8.63;;;;;;;17.01;49.96;102917.28;6250637;22;20057;-85
2023/02/15 01:39:25;;;;;;;9.80;8.02;;;;;;;17.00;50.07;102913.75;6225270;22;20004;-86
2023/02/15 01:41:50;;;;;;;10.52;9.20;;;;;;;17.00;50.15;102910.28;6251086;22;20016;-86
2023/02/15 01:45:01;;;;;;;9.10;8.20;;;;;;;17.00;49.98;102908.56;6202014;22;20063;-86
2023/02/15 01:47:43;;;;;;;9.65;8.45;;;;;;;16.99;49.97;102914.63;6213141;23;20015;-86
2023/02/15 01:50:26;;;;;;;9.35;8.10;;;;;;;16.98;50.12;102907.66;6251741;22;20351;-86
2023/02/15 01:53:04;;;;;;;10.70;8.70;;;;;;;16.97;50.01;102905.91;6253190;22;20000;-86
2023/02/15 01:55:55;;;;;;;9.68;8.68;;;;;;;16.98;49.92;102906.78;6252658;22;20000;-85
2023/02/15 01:58:22;;;;;;;9.85;8.85;;;;;;;16.97;49.75;102895.50;6228103;23;20337;-86
2023/02/15 02:00:48;;;;;;;8.73;7.82;;;;;;;16.96;50.02;102898.94;6222283;23;20062;-86
2023/02/15 02:03:14;;;;;;;9.52;8.52;;;;;;;16.97;49.84;102899.81;6226147;22;20012;-85
2023/02/15 02:05:40;;;;;;;9.90;8.75;;;;;;;16.97;49.86;102902.41;6252315;22;20328;-85
2023/02/15 02:08:09;;;;;;;8.65;7.75;;;;;;;16.96;49.90;102896.34;6226795;22;20035;-86
2023/02/15 02:10:35;;;;;;;10.05;8.57;;;;;;;16.96;49.93;102896.34;6227147;22;20035;-86
2023/02/15 02:13:04;;;;;;;9.27;8.27;;;;;;;16.95;49.67;102891.97;6252496;22;20004;-85
2023/02/15 02:15:58;;;;;;;9.82;8.30;;;;;;;16.95;49.93;102881.56;6252209;22;20328;-84
2023/02/15 02:18:40;;;;;;;9.85;8.02;;;;;;;16.96;50.07;102885.03;6195739;23;20064;-87
2023/02/15 02:21:41;;;;;;;9.27;8.23;;;;;;;16.94;49.87;102877.22;6249669;22;20027;-84
2023/02/15 02:24:51;;;;;;;8.80;7.90;;;;;;;16.94;49.52;102876.31;6244931;22;20451;-86
2023/02/15 02:27:30;;;;;;;8.80;7.90;;;;;;;16.94;49.98;102878.91;6251649;22;20011;-85
2023/02/15 02:30:11;;;;;;;8.90;8.00;;;;;;;16.93;49.95;102875.44;6251559;22;20027;-85
2023/02/15 02:33:13;;;;;;;8.77;7.68;;;;;;;16.93;49.84;102866.78;6278800;22;20029;-85
2023/02/15 02:36:02;;;;;;;8.90;7.40;;;;;;;16.94;49.93;102863.31;6251575;22;20000;-84
2023/02/15 02:38:42;;;;;;;8.20;7.20;;;;;;;16.95;49.95;102862.50;6251452;22;20016;-84
2023/02/15 02:41:21;;;;;;;7.70;6.93;;;;;;;16.95;50.10;102859.88;6251246;22;20047;-85
2023/02/15 02:44:02;;;;;;;7.90;7.10;;;;;;;16.95;49.94;102852.97;6251324;22;20375;-86
2023/02/15 02:46:37;;;;;;;7.97;6.80;;;;;;;16.95;50.13;102839.94;6251464;22;20082;-86
2023/02/15 02:49:02;;;;;;;8.70;7.20;;;;;;;16.95;49.92;102836.47;6251570;22;20014;-85
2023/02/15 02:51:28;;;;;;;7.70;6.90;;;;;;;16.95;49.84;102834.75;6226301;22;20028;-85
2023/02/15 02:53:57;;;;;;;10.20;7.50;;;;;;;16.96;50.06;102833.03;6251486;22;20008;-86
2023/02/15 02:56:28;;;;;;;8.43;7.43;;;;;;;16.94;50.03;102833.00;6250904;22;20523;-85
2023/02/15 02:59:00;;;;;;;9.82;7.47;;;;;;;16.94;49.94;102825.22;6251502;22;20003;-83
2023/02/15 03:01:37;;;;;;;11.15;7.38;;;;;;;16.92;49.96;102821.69;6251265;22;20003;-85
2023/02/15 03:04:09;;;;;;;8.02;6.97;;;;;;;16.92;49.97;102825.97;6251055;22;20011;-83
2023/02/15 03:06:48;;;;;;;9.17;7.37;;;;;;;16.93;49.81;102818.22;6251337;22;19996;-83
2023/02/15 03:09:24;;;;;;;9.60;7.30;;;;;;;16.93;50.01;102817.34;6251316;22;20321;-85
2023/02/15 03:11:50;;;;;;;8.95;7.40;;;;;;;16.91;50.05;102817.31;6251180;22;20003;-85
2023/02/15 03:14:19;;;;;;;7.75;6.95;;;;;;;16.93;49.89;102817.34;6251425;22;20310;-85
2023/02/15 03:16:47;;;;;;;7.65;6.95;;;;;;;16.91;49.86;102817.31;6251450;22;20034;-85
2023/02/15 03:19:17;;;;;;;7.90;7.00;;;;;;;16.91;49.87;102813.84;6279330;22;20002;-83
2023/02/15 03:21:49;;;;;;;7.93;6.70;;;;;;;16.90;49.58;102815.56;6251163;22;20008;-81
2023/02/15 03:24:21;;;;;;;7.53;6.57;;;;;;;16.90;49.91;102810.38;6251016;22;20078;-83
2023/02/15 03:26:51;;;;;;;7.95;7.05;;;;;;;16.88;49.83;102809.44;6250911;22;20006;-81
2023/02/15 03:29:19;;;;;;;8.10;7.10;;;;;;;16.89;49.90;102805.13;6278233;22;20031;-83
2023/02/15 03:31:48;;;;;;;8.60;6.72;;;;;;;16.88;49.79;102800.78;6226670;22;20071;-85
2023/02/15 03:34:15;;;;;;;7.03;6.35;;;;;;;16.88;49.79;102799.03;6251015;22;20000;-84
2023/02/15 03:36:46;;;;;;;8.05;6.88;;;;;;;16.86;49.83;102801.59;6225785;22;20007;-84
2023/02/15 03:39:22;;;;;;;7.47;6.72;;;;;;;16.86;49.76;102792.94;6251676;22;20034;-82
2023/02/15 03:42:19;;;;;;;7.07;6.25;;;;;;;16.85;49.78;102797.25;6265990;22;20012;-83
2023/02/15 03:44:59;;;;;;;7.55;6.15;;;;;;;16.86;49.67;102795.53;6265145;22;20004;-82
2023/02/15 03:47:32;;;;;;;7.22;6.22;;;;;;;16.87;49.88;102792.06;6266358;22;20008;-83
2023/02/15 03:51:33;;;;;;;7.15;6.40;;;;;;;16.88;49.76;102785.16;6257561;22;20000;-86
2023/02/15 03:52:59;;;;;;;6.75;5.90;;;;;;;16.90;49.88;102781.75;6278534;22;20006;-84
2023/02/15 03:55:25;;;;;;;7.07;6.30;;;;;;;16.88;49.96;102782.56;6278770;22;20006;-85
2023/02/15 04:03:39;;;;;;;6.53;5.82;;;;;;;16.88;49.83;102779.97;6277916;22;20442;-85
2023/02/15 04:06:04;;;;;;;7.05;6.20;;;;;;;16.88;49.90;102775.63;6251022;22;20421;-84
2023/02/15 04:11:14;;;;;;;7.10;5.90;;;;;;;16.88;49.82;102766.97;6256101;22;20104;-85
2023/02/15 04:13:39;;;;;;;7.38;5.82;;;;;;;16.86;49.67;102770.38;6226453;22;20008;-85
2023/02/15 04:16:05;;;;;;;6.88;5.95;;;;;;;16.85;49.77;102766.06;6279253;22;20027;-87
2023/02/15 04:26:57;;;;;;;6.63;5.93;;;;;;;16.83;49.76;102757.34;6256099;22;20061;-88
2023/02/15 04:29:24;;;;;;;6.25;5.25;;;;;;;16.82;49.79;102747.75;6279000;22;20011;-87
2023/02/15 04:31:50;;;;;;;6.90;5.60;;;;;;;16.82;49.73;102745.16;6201789;22;20061;-88
2023/02/15 04:34:16;;;;;;;6.40;5.75;;;;;;;16.82;49.68;102742.56;6226415;22;20044;-85
2023/02/15 04:36:42;;;;;;;5.82;5.22;;;;;;;16.81;49.78;102742.50;6250563;22;20027;-85
2023/02/15 04:39:08;;;;;;;5.78;5.15;;;;;;;16.81;49.57;102746.00;6250327;22;20110;-84
2023/02/15 04:41:34;;;;;;;6.32;5.38;;;;;;;16.82;49.61;102752.09;6225270;22;20031;-84
2023/02/15 04:44:01;;;;;;;6.35;5.68;;;;;;;16.81;49.57;102740.81;6250827;22;20038;-85
2023/02/15 04:46:27;;;;;;;6.22;4.65;;;;;;;16.81;49.46;102745.09;6250569;22;20067;-86
2023/02/15 04:48:53;;;;;;;6.60;5.53;;;;;;;16.80;49.50;102749.44;6250331;22;20003;-85
2023/02/15 04:51:19;;;;;;;5.55;4.95;;;;;;;16.80;49.48;102744.22;6250486;22;20034;-85
2023/02/15 04:53:46;;;;;;;6.07;5.43;;;;;;;16.80;49.57;102743.38;6225624;22;20424;-84
2023/02/15 04:56:11;;;;;;;6.22;5.45;;;;;;;16.78;49.57;102732.88;6200297;22;20008;-83
2023/02/15 04:58:40;;;;;;;6.28;5.10;;;;;;;16.80;49.63;102739.03;6225169;22;20007;-86
2023/02/15 05:01:06;;;;;;;6.60;5.38;;;;;;;16.82;49.63;102739.94;6251288;22;20003;-83
2023/02/15 05:03:31;;;;;;;7.53;4.88;;;;;;;16.81;49.73;102730.41;6250556;22;20386;-84
2023/02/15 05:05:57;;;;;;;5.50;4.68;;;;;;;16.83;49.84;102727.81;6224971;22;20428;-83
2023/02/15 05:08:22;;;;;;;5.97;4.93;;;;;;;16.81;49.61;102743.41;6225004;22;20012;-85
2023/02/15 05:10:48;;;;;;;6.05;4.93;;;;;;;16.82;49.83;102732.16;6200026;22;20432;-84
2023/02/15 05:13:14;;;;;;;5.75;4.70;;;;;;;16.83;49.70;102728.72;6225217;22;20037;-81
2023/02/15 05:15:39;;;;;;;5.20;4.70;;;;;;;16.84;49.68;102727.00;6200222;22;20019;-84
2023/02/15 05:18:06;;;;;;;5.60;5.00;;;;;;;16.82;49.80;102726.94;6250389;22;20012;-83
2023/02/15 05:20:31;;;;;;;6.63;5.10;;;;;;;16.83;49.73;102727.81;6227794;22;20030;-84
2023/02/15 05:22:57;;;;;;;6.22;4.72;;;;;;;16.82;49.47;102729.56;6226850;22;20306;-83
2023/02/15 05:28:20;;;;;;;;;;;;;;;16.83;49.60;102741.72;6236280;22;20073;-89
2023/02/15 05:30:48;;;;;;;6.43;4.60;;;;;;;16.84;49.58;102742.59;6254142;22;19903;-90
2023/02/15 05:33:13;;;;;;;5.13;4.55;;;;;;;16.84;49.61;102734.81;6228951;22;20133;-91
2023/02/15 05:35:38;;;;;;;4.93;4.35;;;;;;;16.83;49.83;102733.03;6229004;22;20370;-92
2023/02/15 05:38:04;;;;;;;5.22;4.70;;;;;;;16.83;49.60;102731.34;6253618;22;20501;-83
2023/02/15 05:40:29;;;;;;;4.85;4.25;;;;;;;16.83;49.68;102730.44;6252761;22;20044;-86
2023/02/15 05:42:55;;;;;;;5.43;4.25;;;;;;;16.82;49.49;102731.28;6227094;22;20016;-87
2023/02/15 05:45:21;;;;;;;6.28;4.90;;;;;;;16.83;49.64;102733.94;6227127;22;19999;-84
2023/02/15 05:47:46;;;;;;;4.68;4.15;;;;;;;16.83;49.73;102730.44;6252998;22;20034;-84
2023/02/15 05:50:12;;;;;;;7.25;4.25;;;;;;;16.83;49.63;102733.94;6252612;22;20029;-84
2023/02/15 05:52:37;;;;;;;4.75;4.13;;;;;;;16.83;49.68;102728.72;6253254;22;20007;-89
2023/02/15 05:55:04;;;;;;;5.07;4.53;;;;;;;16.84;49.74;102716.59;6228890;22;20483;-88
2023/02/15 05:57:30;;;;;;;5.35;4.63;;;;;;;16.82;49.71;102708.75;6206818;22;20004;-94
2023/02/15 05:59:55;;;;;;;5.32;4.45;;;;;;;16.83;49.61;102715.72;6228194;22;20029;-84
2023/02/15 06:02:21;;;;;;;7.35;4.35;;;;;;;16.84;49.61;102711.41;6254191;22;20019;-88
2023/02/15 06:04:46;;;;;;;5.45;4.50;;;;;;;16.82;49.55;102700.94;6203489;22;20031;-90
2023/02/15 06:07:12;;;;;;;4.80;4.30;;;;;;;16.82;49.56;102700.94;6227687;22;20258;-86
2023/02/15 06:09:37;;;;;;;5.18;4.13;;;;;;;16.84;49.70;102703.59;6227222;22;20012;-87
2023/02/15 06:12:03;;;;;;;6.28;4.20;;;;;;;16.83;49.78;102694.03;6227253;22;20379;-85
2023/02/15 06:14:28;;;;;;;4.55;3.67;;;;;;;16.84;49.91;102701.00;6202387;22;20019;-90
2023/02/15 06:16:53;;;;;;;5.78;4.22;;;;;;;16.84;49.92;102707.06;6227523;22;20003;-85
2023/02/15 06:19:19;;;;;;;6.05;4.32;;;;;;;16.84;49.79;102701.88;6252021;22;20019;-84
2023/02/15 06:21:45;;;;;;;5.95;4.43;;;;;;;16.85;49.90;102703.66;6251476;22;20447;-84
2023/02/15 06:24:10;;;;;;;5.85;3.80;;;;;;;16.97;50.10;102703.03;6251652;22;20008;-84
2023/02/15 06:26:36;;;;;;;10.07;4.28;;;;;;;17.07;50.26;102709.31;6226964;22;20004;-82
2023/02/15 06:29:01;;;;;;;7.82;4.20;;;;;;;17.12;50.14;102706.84;6253779;22;20436;-82
2023/02/15 06:31:27;;;;;;;8.38;4.10;;;;;;;17.14;50.13;102707.75;6216308;22;20077;-85
2023/02/15 06:33:52;;;;;;;5.20;3.97;;;;;;;17.15;50.09;102712.09;6222914;22;20015;-91
2023/02/15 06:36:18;;;;;;;7.47;4.47;;;;;;;17.16;49.96;102706.94;6223547;22;20007;-88
2023/02/15 06:38:43;;;;;;;6.68;4.10;;;;;;;17.18;50.20;102709.53;6247094;22;20028;-83
2023/02/15 06:41:08;;;;;;;4.57;4.18;;;;;;;17.17;50.40;102700.88;6259407;22;20444;-86
2023/02/15 06:43:34;;;;;;;8.52;4.45;;;;;;;17.20;50.29;102706.16;6227882;22;20102;-85
2023/02/15 06:46:00;;;;;;;4.75;4.05;;;;;;;17.21;50.13;102707.91;6227820;22;20084;-84
2023/02/15 06:48:25;;;;;;;6.43;4.07;;;;;;;17.21;49.94;102702.69;6226934;22;20420;-83
2023/02/15 06:50:51;;;;;;;5.70;3.90;;;;;;;17.24;50.13;102707.09;6227532;22;20091;-83
2023/02/15 06:53:16;;;;;;;5.90;4.10;;;;;;;17.24;49.88;102712.28;6227444;22;20007;-84
2023/02/15 06:55:41;;;;;;;6.15;3.83;;;;;;;17.24;49.84;102702.75;6227083;22;20007;-84
2023/02/15 06:58:07;;;;;;;6.03;4.10;;;;;;;17.24;49.83;102700.16;6226591;22;20003;-84
2023/02/15 07:00:32;;;;;;;5.47;4.20;;;;;;;17.24;50.00;102702.75;6226701;22;20022;-85
2023/02/15 07:02:58;;;;;;;5.78;3.95;;;;;;;17.25;49.82;102695.84;6226015;22;20003;-86
2023/02/15 07:05:30;;;;;;;4.30;3.53;;;;;;;17.25;49.76;102696.72;6251809;22;20008;-85
2023/02/15 07:07:55;;;;;;;8.18;4.40;;;;;;;17.25;49.76;102703.66;6252128;22;20086;-87
2023/02/15 07:10:21;;;;;;;5.50;4.00;;;;;;;17.27;49.75;102695.03;6252414;22;20047;-85
2023/02/15 07:12:47;;;;;;;6.05;3.88;;;;;;;17.28;49.59;102690.69;6226305;22;20426;-85
2023/02/15 07:15:17;;;;;;;7.72;3.90;;;;;;;17.29;49.52;102697.66;6251226;22;20004;-85
2023/02/15 07:17:43;;;;;;;4.28;3.38;;;;;;;17.29;49.46;102684.66;6251125;22;20026;-84
2023/02/15 07:20:15;;;;;;;5.70;3.55;;;;;;;17.30;49.65;102689.00;6201312;22;20083;-85
2023/02/15 07:22:40;;;;;;;4.63;3.78;;;;;;;17.31;49.75;102685.56;6278245;22;19995;-84
2023/02/15 07:25:08;;;;;;;6.20;3.80;;;;;;;17.32;49.61;102684.72;6226285;22;20026;-85
2023/02/15 07:27:34;;;;;;;4.57;3.78;;;;;;;17.34;49.64;102687.34;6251055;22;20018;-84
2023/02/15 07:30:00;;;;;;;6.00;3.90;;;;;;;17.35;49.53;102686.50;6225835;22;20004;-85
2023/02/15 07:32:30;;;;;;;5.15;3.75;;;;;;;17.36;49.55;102683.06;6278688;22;20007;-84
2023/02/15 07:34:57;;;;;;;4.13;3.22;;;;;;;17.35;49.44;102673.47;6252485;22;20010;-82
2023/02/15 07:37:22;;;;;;;5.82;3.58;;;;;;;17.36;49.14;102672.66;6227130;22;20004;-89
2023/02/15 07:39:48;;;;;;;4.13;3.50;;;;;;;17.37;49.58;102672.66;6252179;22;20309;-88
2023/02/15 07:42:13;;;;;;;4.63;3.70;;;;;;;17.37;49.35;102669.19;6201335;22;20085;-88
2023/02/15 07:44:52;;;;;;;;;;;;;;;;;;;;;
2023/02/15 07:47:18;;;;;;;4.18;3.30;;;;;;;17.40;49.18;102670.13;6279284;22;20103;-83
2023/02/15 07:49:44;;;;;;;4.45;3.83;;;;;;;17.40;49.44;102667.53;6225775;22;20440;-85
2023/02/15 07:52:09;;;;;;;5.28;3.65;;;;;;;17.40;49.37;102662.34;6251065;22;20008;-85
2023/02/15 07:54:35;;;;;;;4.78;3.60;;;;;;;17.42;49.39;102660.66;6226117;22;20493;-84
2023/02/15 07:57:01;;;;;;;5.47;3.70;;;;;;;17.43;49.29;102662.38;6225964;22;20000;-82
2023/02/15 07:59:27;;;;;;;4.85;3.65;;;;;;;17.44;49.21;102658.94;6200633;22;20018;-82
2023/02/15 08:01:53;;;;;;;8.18;3.75;;;;;;;17.46;49.41;102658.97;6225934;22;20424;-83
2023/02/15 08:04:19;;;;;;;5.32;3.80;;;;;;;17.46;49.30;102646.84;6200874;22;20018;-83
2023/02/15 08:06:44;;;;;;;5.53;3.70;;;;;;;17.47;49.43;102648.59;6225388;22;20375;-82
2023/02/15 08:09:10;;;;;;;5.53;3.78;;;;;;;17.50;49.09;102646.91;6225286;22;20012;-82
2023/02/15 08:11:37;;;;;;;5.63;3.80;;;;;;;17.50;49.11;102641.69;6250875;22;20007;-83
2023/02/15 08:14:06;;;;;;;5.63;3.72;;;;;;;17.51;49.06;102646.03;6225530;22;20007;-81
2023/02/15 08:16:32;;;;;;;5.53;3.60;;;;;;;17.51;49.00;102639.13;6278116;22;20078;-81
2023/02/15 08:19:00;;;;;;;4.45;3.60;;;;;;;17.52;49.01;102640.88;6250788;22;20030;-83
2023/02/15 08:21:28;;;;;;;5.05;3.67;;;;;;;17.53;49.06;102637.44;6225643;22;20003;-80
2023/02/15 08:23:54;;;;;;;4.55;3.50;;;;;;;17.55;48.70;102637.44;6250495;22;20003;-82
2023/02/15 08:26:20;;;;;;;5.40;3.72;;;;;;;17.59;48.90;102640.13;6250663;22;20055;-85
2023/02/15 08:28:46;;;;;;;4.05;3.22;;;;;;;17.63;48.72;102643.69;6225785;22;20030;-85
2023/02/15 08:31:13;;;;;;;5.10;3.58;;;;;;;17.73;48.37;102649.94;6200856;22;20014;-85
2023/02/15 08:33:40;;;;;;;4.60;4.00;;;;;;;17.80;48.71;102649.22;6251205;22;20077;-89
2023/02/15 08:36:12;;;;;;;5.65;3.80;;;;;;;17.83;48.58;102646.69;6250933;22;20074;-86
2023/02/15 08:38:37;;;;;;;6.57;4.70;;;;;;;17.83;48.20;102652.78;6251394;22;20011;-86
2023/02/15 08:41:10;;;;;;;12.45;5.75;;;;;;;17.76;48.24;102660.41;6201400;22;20450;-88
2023/02/15 08:43:35;;;;;;;13.80;5.90;;;;;;;17.74;48.46;102660.38;6251640;22;20000;-84
2023/02/15 08:46:00;;;;;;;9.75;5.43;;;;;;;17.77;48.60;102649.13;6226060;22;20336;-84
2023/02/15 08:48:26;;;;;;;9.73;4.97;;;;;;;17.78;48.72;102656.97;6201680;22;20007;-82
2023/02/15 08:50:51;;;;;;;8.77;4.97;;;;;;;17.77;48.58;102660.44;6251085;22;20429;-83
2023/02/15 08:53:21;;;;;;;9.63;4.90;;;;;;;17.77;48.47;102657.84;6250773;22;20004;-85
2023/02/15 08:55:46;;;;;;;9.70;4.82;;;;;;;17.79;48.58;102647.44;6226187;22;20063;-82
2023/02/15 08:58:12;;;;;;;8.07;5.00;;;;;;;17.80;48.44;102647.47;6200103;22;20345;-83
2023/02/15 09:00:37;;;;;;;7.22;4.50;;;;;;;17.81;48.17;102650.94;6225352;22;20494;-83
2023/02/15 09:03:03;;;;;;;9.88;4.50;;;;;;;17.82;48.41;102651.00;6277894;22;20007;-82
2023/02/15 09:05:28;;;;;;;7.05;4.53;;;;;;;17.84;48.41;102648.44;6225377;22;20042;-85
2023/02/15 09:07:53;;;;;;;8.35;5.05;;;;;;;17.85;48.41;102650.19;6225928;22;20022;-85
2023/02/15 09:10:20;;;;;;;8.23;5.10;;;;;;;17.84;48.33;102643.25;6258204;22;20007;-85
2023/02/15 09:12:45;;;;;;;6.22;4.60;;;;;;;17.87;48.21;102648.50;6248084;22;20050;-84
2023/02/15 09:15:11;;;;;;;6.97;4.72;;;;;;;17.85;48.39;102639.78;6241126;22;20003;-84
2023/02/15 09:17:36;;;;;;;6.65;4.63;;;;;;;17.86;48.28;102637.19;6297315;22;19996;-84
2023/02/15 09:20:02;;;;;;;6.60;4.25;;;;;;;17.87;48.37;102645.88;6236417;22;20000;-85
2023/02/15 09:22:28;;;;;;;6.05;4.50;;;;;;;17.85;48.29;102645.84;6228894;22;20011;-85
2023/02/15 09:24:53;;;;;;;6.22;4.75;;;;;;;17.85;48.33;102651.06;6227747;22;20015;-85
2023/02/15 09:27:18;;;;;;;6.97;4.35;;;;;;;17.85;48.48;102634.56;6227079;22;20007;-84
2023/02/15 09:29:44;;;;;;;6.55;4.43;;;;;;;17.86;48.33;102623.31;6202886;22;20004;-83
2023/02/15 09:32:14;;;;;;;5.95;4.68;;;;;;;17.90;48.40;102622.53;6228102;22;20439;-85
2023/02/15 09:34:39;;;;;;;6.07;4.57;;;;;;;17.88;48.33;102619.00;6251621;22;20087;-84
2023/02/15 09:37:06;;;;;;;6.18;4.25;;;;;;;17.90;48.41;102622.53;6226002;22;20082;-82
2023/02/15 09:39:31;;;;;;;7.63;4.65;;;;;;;17.91;48.34;102615.56;6226752;22;20016;-85
2023/02/15 09:42:15;;;;;;;5.18;4.38;;;;;;;17.92;48.28;102622.53;6226420;22;20042;-82
2023/02/15 09:45:04;;;;;;;5.60;4.30;;;;;;;17.92;48.40;102622.53;6251062;22;20003;-85
2023/02/15 09:47:39;;;;;;;5.70;4.45;;;;;;;17.92;48.38;102631.25;6250933;22;20031;-87
2023/02/15 09:50:10;;;;;;;5.68;4.47;;;;;;;17.87;48.62;102627.66;6251340;22;20007;-85
2023/02/15 09:53:13;;;;;;;6.30;4.50;;;;;;;17.82;48.56;102626.72;6250869;22;20099;-86
2023/02/15 09:55:55;;;;;;;6.65;4.55;;;;;;;17.81;48.64;102625.81;6250485;22;20006;-87
2023/02/15 09:58:55;;;;;;;9.48;4.57;;;;;;;17.82;48.57;102624.97;6250425;22;20262;-86
2023/02/15 10:01:41;;;;;;;5.28;4.32;;;;;;;17.82;48.54;102619.75;6250742;22;20078;-86
2023/02/15 10:04:22;;;;;;;6.50;4.38;;;;;;;17.79;48.53;102611.88;6251418;22;20073;-85
2023/02/15 10:07:01;;;;;;;4.95;3.92;;;;;;;17.80;48.64;102615.34;6252387;22;19999;-86
2023/02/15 10:09:41;;;;;;;6.53;4.72;;;;;;;17.79;48.81;102619.69;6252459;22;20015;-85
2023/02/15 10:12:46;;;;;;;5.53;4.55;;;;;;;17.80;48.85;102613.63;6252598;22;20085;-86
2023/02/15 10:15:17;;;;;;;;;;;;;;;17.81;48.66;102611.88;6252977;22;20003;-86
2023/02/15 10:18:04;;;;;;;6.22;4.53;;;;;;;17.81;48.59;102617.09;6252179;22;19903;-84
2023/02/15 10:20:42;;;;;;;5.00;4.38;;;;;;;17.80;48.76;102620.56;6252339;22;20440;-85
2023/02/15 10:23:25;;;;;;;6.43;4.80;;;;;;;17.79;48.76;102624.91;6253056;22;20463;-86
2023/02/15 10:26:22;;;;;;;6.88;4.75;;;;;;;17.81;48.81;102624.91;6252806;22;20008;-83
2023/02/15 10:28:55;;;;;;;6.25;4.50;;;;;;;17.79;48.84;102627.50;6253859;22;20004;-83
2023/02/15 10:31:23;;;;;;;5.35;4.60;;;;;;;17.79;49.02;102619.69;6253221;22;20095;-84
2023/02/15 10:34:18;;;;;;;7.22;4.40;;;;;;;17.80;48.71;102608.41;6252495;22;20015;-83
2023/02/15 10:37:26;;;;;;;5.32;4.70;;;;;;;17.81;48.74;102611.88;6236560;22;20086;-85
2023/02/15 10:40:39;;;;;;;5.68;4.38;;;;;;;17.80;48.84;102594.53;6252252;22;20086;-85
2023/02/15 10:43:40;;;;;;;7.20;4.75;;;;;;;17.81;48.85;102591.94;6184284;22;20016;-83
2023/02/15 10:46:48;;;;;;;5.10;4.53;;;;;;;17.80;48.91;102595.38;6279816;22;19999;-84
2023/02/15 10:49:25;;;;;;;7.40;5.35;;;;;;;17.82;48.80;102605.88;6231984;22;20340;-84
2023/02/15 10:52:19;;;;;;;7.97;5.38;;;;;;;17.81;48.72;102591.94;6252517;22;20031;-85
2023/02/15 10:55:26;;;;;;;5.60;4.55;;;;;;;17.82;48.95;102588.50;6252490;22;20010;-85
2023/02/15 10:58:11;;;;;;;6.00;4.70;;;;;;;17.82;48.67;102567.69;6251749;22;20031;-85
2023/02/15 11:00:44;;;;;;;6.35;5.15;;;;;;;17.84;48.68;102571.19;6252408;22;20000;-82
2023/02/15 11:03:30;;;;;;;5.63;4.50;;;;;;;17.86;48.63;102553.00;6279079;22;20046;-84
2023/02/15 11:06:07;;;;;;;4.97;4.47;;;;;;;17.86;48.64;102553.00;6251991;22;19999;-87
2023/02/15 11:08:38;;;;;;;6.68;4.50;;;;;;;17.87;48.67;102557.34;6279220;22;20076;-85
2023/02/15 11:11:10;;;;;;;5.35;4.53;;;;;;;17.87;48.84;102549.53;6252354;22;20008;-84
2023/02/15 11:13:45;;;;;;;6.20;4.53;;;;;;;17.87;48.62;102549.53;6252714;22;20427;-85
2023/02/15 11:16:32;;;;;;;8.30;5.00;;;;;;;17.87;48.54;102545.19;6251653;22;20000;-84
2023/02/15 11:19:09;;;;;;;7.50;4.68;;;;;;;17.88;48.60;102546.09;6251895;22;20016;-85
2023/02/15 11:21:43;;;;;;;5.28;4.53;;;;;;;17.89;48.52;102553.91;6252258;22;20007;-84
2023/02/15 11:24:21;;;;;;;5.95;4.93;;;;;;;17.90;48.65;102557.41;6251497;22;20078;-85
2023/02/15 11:27:19;;;;;;;7.20;5.07;;;;;;;17.92;48.50;102555.72;6247586;22;20015;-84
2023/02/15 11:29:50;;;;;;;6.22;4.68;;;;;;;17.91;48.59;102556.53;6234284;22;20007;-83
2023/02/15 11:32:27;;;;;;;6.97;5.68;;;;;;;17.94;48.60;102571.34;6252191;22;20087;-84
2023/02/15 11:35:13;;;;;;;5.70;4.97;;;;;;;17.95;48.57;102570.50;6251676;22;20450;-85
2023/02/15 11:38:06;;;;;;;5.60;4.93;;;;;;;17.96;48.36;102564.44;6251831;22;20030;-82
2023/02/15 11:40:41;;;;;;;6.63;5.20;;;;;;;17.99;48.65;102554.94;6250779;22;20018;-85
2023/02/15 11:43:15;;;;;;;6.75;4.90;;;;;;;18.04;48.28;102542.84;6251433;22;20054;-84
2023/02/15 11:45:44;;;;;;;5.22;4.70;;;;;;;18.03;48.46;102540.22;6251398;22;20015;-83
2023/02/15 11:48:12;;;;;;;6.35;4.60;;;;;;;18.02;48.81;102541.09;6252598;22;20065;-82
2023/02/15 11:50:38;;;;;;;6.97;4.68;;;;;;;18.00;48.67;102540.19;6272678;22;20743;-82
2023/02/15 11:53:13;;;;;;;7.22;4.75;;;;;;;17.99;48.56;102538.44;6220867;22;20327;-80
2023/02/15 11:55:41;;;;;;;5.75;4.63;;;;;;;18.03;48.59;102535.00;6273568;22;20045;-82
2023/02/15 11:58:28;;;;;;;5.18;4.57;;;;;;;18.07;48.69;102537.72;6261735;22;20328;-84
2023/02/15 12:01:19;;;;;;;5.55;4.50;;;;;;;18.13;48.63;102531.69;6254156;22;20455;-83
2023/02/15 12:03:48;;;;;;;5.68;4.50;;;;;;;18.15;48.62;102524.78;6252966;22;20004;-85
2023/02/15 12:06:38;;;;;;;5.70;4.75;;;;;;;18.18;48.78;102521.34;6252317;22;20452;-83